sensor_id;sensor_type;location;lat;lon;timestamp;pressure;altitude;pressure_sealevel;temperature;humidity
2178;BME280;1095;50.992;6.798;2023-03-12T00:00:49;100476.16;;;0.76;89.64
2178;BME280;1095;50.992;6.798;2023-03-12T00:03:16;100477.25;;;0.72;90.11
2178;BME280;1095;50.992;6.798;2023-03-12T00:05:43;100482.94;;;0.77;90.45
2178;BME280;1095;50.992;6.798;2023-03-12T00:08:12;100479.66;;;0.75;90.14
2178;BME280;1095;50.992;6.798;2023-03-12T00:10:40;100471.09;;;0.74;90.45
2178;BME280;1095;50.992;6.798;2023-03-12T00:13:08;100464.38;;;0.72;90.74
2178;BME280;1095;50.992;6.798;2023-03-12T00:15:35;100462.00;;;0.69;90.52
2178;BME280;1095;50.992;6.798;2023-03-12T00:18:03;100463.75;;;0.68;91.15
2178;BME280;1095;50.992;6.798;2023-03-12T00:20:30;100468.41;;;0.76;90.92
2178;BME280;1095;50.992;6.798;2023-03-12T00:22:56;100461.53;;;0.76;90.89
2178;BME280;1095;50.992;6.798;2023-03-12T00:25:23;100451.50;;;0.72;90.93
2178;BME280;1095;50.992;6.798;2023-03-12T00:27:50;100458.22;;;0.74;90.54
2178;BME280;1095;50.992;6.798;2023-03-12T00:30:18;100461.31;;;0.79;90.40
2178;BME280;1095;50.992;6.798;2023-03-12T00:32:45;100455.44;;;0.77;90.20
2178;BME280;1095;50.992;6.798;2023-03-12T00:35:11;100446.25;;;0.73;90.34
2178;BME280;1095;50.992;6.798;2023-03-12T00:37:38;100460.59;;;0.77;89.94
2178;BME280;1095;50.992;6.798;2023-03-12T00:40:05;100460.59;;;0.77;90.35
2178;BME280;1095;50.992;6.798;2023-03-12T00:42:33;100455.34;;;0.79;90.31
2178;BME280;1095;50.992;6.798;2023-03-12T00:45:00;100450.09;;;0.80;90.43
2178;BME280;1095;50.992;6.798;2023-03-12T00:47:28;100453.06;;;0.74;90.27
2178;BME280;1095;50.992;6.798;2023-03-12T00:49:54;100452.88;;;0.77;90.56
2178;BME280;1095;50.992;6.798;2023-03-12T00:52:21;100448.34;;;0.81;90.32
2178;BME280;1095;50.992;6.798;2023-03-12T00:54:48;100448.44;;;0.79;90.40
2178;BME280;1095;50.992;6.798;2023-03-12T00:57:14;100437.41;;;0.77;90.46
2178;BME280;1095;50.992;6.798;2023-03-12T00:59:41;100444.03;;;0.81;90.24
2178;BME280;1095;50.992;6.798;2023-03-12T01:02:08;100433.97;;;0.91;90.27
2178;BME280;1095;50.992;6.798;2023-03-12T01:04:36;100427.34;;;0.87;89.76
2178;BME280;1095;50.992;6.798;2023-03-12T01:07:02;100435.81;;;0.89;89.68
2178;BME280;1095;50.992;6.798;2023-03-12T01:09:29;100427.34;;;0.87;89.18
2178;BME280;1095;50.992;6.798;2023-03-12T01:11:56;100431.69;;;0.86;88.90
2178;BME280;1095;50.992;6.798;2023-03-12T01:14:22;100430.03;;;0.85;88.64
2178;BME280;1095;50.992;6.798;2023-03-12T01:16:49;100427.25;;;0.88;88.60
2178;BME280;1095;50.992;6.798;2023-03-12T01:19:16;100423.66;;;0.91;88.83
2178;BME280;1095;50.992;6.798;2023-03-12T01:21:44;100419.22;;;0.93;88.10
2178;BME280;1095;50.992;6.798;2023-03-12T01:24:10;100400.88;;;0.85;88.03
2178;BME280;1095;50.992;6.798;2023-03-12T01:26:37;100409.63;;;0.95;88.12
2178;BME280;1095;50.992;6.798;2023-03-12T01:29:04;100410.69;;;0.92;88.28
2178;BME280;1095;50.992;6.798;2023-03-12T01:31:30;100405.28;;;0.95;88.44
2178;BME280;1095;50.992;6.798;2023-03-12T01:33:57;100397.06;;;0.90;88.38
2178;BME280;1095;50.992;6.798;2023-03-12T01:36:25;100404.59;;;0.93;88.55
2178;BME280;1095;50.992;6.798;2023-03-12T01:38:56;100399.66;;;0.90;88.70
2178;BME280;1095;50.992;6.798;2023-03-12T01:41:24;100398.19;;;0.86;88.76
2178;BME280;1095;50.992;6.798;2023-03-12T01:43:52;100397.66;;;0.81;88.63
2178;BME280;1095;50.992;6.798;2023-03-12T01:46:25;100397.75;;;0.80;88.97
2178;BME280;1095;50.992;6.798;2023-03-12T01:48:55;100394.66;;;0.75;88.97
2178;BME280;1095;50.992;6.798;2023-03-12T01:51:25;100390.22;;;0.77;89.42
2178;BME280;1095;50.992;6.798;2023-03-12T01:53:56;100386.09;;;0.74;89.28
2178;BME280;1095;50.992;6.798;2023-03-12T01:56:24;100367.34;;;0.72;89.46
2178;BME280;1095;50.992;6.798;2023-03-12T01:58:54;100355.00;;;0.77;89.72
2178;BME280;1095;50.992;6.798;2023-03-12T02:01:21;100353.16;;;0.79;90.33
2178;BME280;1095;50.992;6.798;2023-03-12T02:03:50;100359.94;;;0.80;90.19
2178;BME280;1095;50.992;6.798;2023-03-12T02:06:22;100359.47;;;0.88;89.74
2178;BME280;1095;50.992;6.798;2023-03-12T02:08:51;100366.25;;;0.89;89.60
2178;BME280;1095;50.992;6.798;2023-03-12T02:11:19;100342.25;;;0.88;89.30
2178;BME280;1095;50.992;6.798;2023-03-12T02:13:45;100337.41;;;0.84;89.33
2178;BME280;1095;50.992;6.798;2023-03-12T02:16:12;100344.09;;;0.86;89.09
2178;BME280;1095;50.992;6.798;2023-03-12T02:18:39;100343.91;;;0.89;89.20
2178;BME280;1095;50.992;6.798;2023-03-12T02:21:12;100346.47;;;0.89;88.67
2178;BME280;1095;50.992;6.798;2023-03-12T02:23:42;100335.75;;;0.83;88.91
2178;BME280;1095;50.992;6.798;2023-03-12T02:26:12;100341.31;;;0.89;89.05
2178;BME280;1095;50.992;6.798;2023-03-12T02:28:40;100327.91;;;0.84;89.26
2178;BME280;1095;50.992;6.798;2023-03-12T02:31:11;100344.63;;;0.91;89.29
2178;BME280;1095;50.992;6.798;2023-03-12T02:33:39;100349.56;;;0.94;89.26
2178;BME280;1095;50.992;6.798;2023-03-12T02:36:06;100341.94;;;0.93;89.27
2178;BME280;1095;50.992;6.798;2023-03-12T02:38:37;100326.78;;;0.88;89.26
2178;BME280;1095;50.992;6.798;2023-03-12T02:41:09;100325.56;;;0.94;89.29
2178;BME280;1095;50.992;6.798;2023-03-12T02:43:38;100333.16;;;0.95;89.12
2178;BME280;1095;50.992;6.798;2023-03-12T02:46:05;100341.41;;;1.00;89.28
2178;BME280;1095;50.992;6.798;2023-03-12T02:48:33;100343.06;;;1.02;89.05
2178;BME280;1095;50.992;6.798;2023-03-12T02:50:59;100336.06;;;1.04;89.35
2178;BME280;1095;50.992;6.798;2023-03-12T02:53:27;100342.97;;;1.03;89.27
2178;BME280;1095;50.992;6.798;2023-03-12T02:55:54;100337.72;;;1.05;89.22
2178;BME280;1095;50.992;6.798;2023-03-12T02:58:21;100341.84;;;1.07;89.42
2178;BME280;1095;50.992;6.798;2023-03-12T03:00:49;100332.34;;;1.08;89.50
2178;BME280;1095;50.992;6.798;2023-03-12T03:03:16;100341.63;;;1.10;89.57
2178;BME280;1095;50.992;6.798;2023-03-12T03:05:43;100334.00;;;1.09;89.47
2178;BME280;1095;50.992;6.798;2023-03-12T03:08:09;100326.28;;;1.09;89.61
2178;BME280;1095;50.992;6.798;2023-03-12T03:10:36;100327.81;;;1.11;89.50
2178;BME280;1095;50.992;6.798;2023-03-12T03:13:03;100311.00;;;1.06;89.37
2178;BME280;1095;50.992;6.798;2023-03-12T03:15:29;100329.47;;;1.12;89.58
2178;BME280;1095;50.992;6.798;2023-03-12T03:17:57;100314.00;;;1.12;89.40
2178;BME280;1095;50.992;6.798;2023-03-12T03:20:28;100306.91;;;1.16;89.34
2178;BME280;1095;50.992;6.798;2023-03-12T03:22:54;100311.31;;;1.14;89.38
2178;BME280;1095;50.992;6.798;2023-03-12T03:25:21;100292.78;;;1.09;89.25
2178;BME280;1095;50.992;6.798;2023-03-12T03:27:48;100298.53;;;1.12;88.76
2178;BME280;1095;50.992;6.798;2023-03-12T03:30:15;100288.44;;;1.09;89.18
2178;BME280;1095;50.992;6.798;2023-03-12T03:32:42;100288.13;;;1.14;89.16
2178;BME280;1095;50.992;6.798;2023-03-12T03:35:10;100305.16;;;1.16;88.81
2178;BME280;1095;50.992;6.798;2023-03-12T03:37:36;100306.47;;;1.22;89.03
2178;BME280;1095;50.992;6.798;2023-03-12T03:40:04;100304.84;;;1.21;88.95
2178;BME280;1095;50.992;6.798;2023-03-12T03:42:36;100301.44;;;1.20;89.03
2178;BME280;1095;50.992;6.798;2023-03-12T03:45:03;100301.22;;;1.23;89.19
2178;BME280;1095;50.992;6.798;2023-03-12T03:47:30;100306.28;;;1.25;88.88
2178;BME280;1095;50.992;6.798;2023-03-12T03:49:56;100301.75;;;1.28;88.75
2178;BME280;1095;50.992;6.798;2023-03-12T03:52:24;100306.78;;;1.30;88.46
2178;BME280;1095;50.992;6.798;2023-03-12T03:54:51;100299.66;;;1.33;88.17
2178;BME280;1095;50.992;6.798;2023-03-12T03:57:18;100291.84;;;1.35;88.39
2178;BME280;1095;50.992;6.798;2023-03-12T03:59:45;100298.75;;;1.35;88.29
2178;BME280;1095;50.992;6.798;2023-03-12T04:02:11;100289.03;;;1.38;87.99
2178;BME280;1095;50.992;6.798;2023-03-12T04:04:38;100278.75;;;1.38;87.80
2178;BME280;1095;50.992;6.798;2023-03-12T04:07:05;100292.25;;;1.42;87.93
2178;BME280;1095;50.992;6.798;2023-03-12T04:09:33;100292.81;;;1.45;87.44
2178;BME280;1095;50.992;6.798;2023-03-12T04:12:00;100298.69;;;1.47;87.84
2178;BME280;1095;50.992;6.798;2023-03-12T04:14:27;100305.00;;;1.43;87.86
2178;BME280;1095;50.992;6.798;2023-03-12T04:16:53;100303.25;;;1.44;87.80
2178;BME280;1095;50.992;6.798;2023-03-12T04:19:20;100281.72;;;1.32;88.27
2178;BME280;1095;50.992;6.798;2023-03-12T04:21:47;100278.75;;;1.38;88.14
2178;BME280;1095;50.992;6.798;2023-03-12T04:24:15;100276.63;;;1.43;87.93
2178;BME280;1095;50.992;6.798;2023-03-12T04:26:44;100295.19;;;1.48;87.83
2178;BME280;1095;50.992;6.798;2023-03-12T04:29:10;100283.03;;;1.50;88.46
2178;BME280;1095;50.992;6.798;2023-03-12T04:31:37;100284.03;;;1.60;88.41
2178;BME280;1095;50.992;6.798;2023-03-12T04:34:04;100282.88;;;1.64;87.77
2178;BME280;1095;50.992;6.798;2023-03-12T04:36:30;100283.59;;;1.66;88.11
2178;BME280;1095;50.992;6.798;2023-03-12T04:38:57;100274.13;;;1.67;87.57
2178;BME280;1095;50.992;6.798;2023-03-12T04:41:24;100278.63;;;1.76;87.64
2178;BME280;1095;50.992;6.798;2023-03-12T04:43:52;100280.38;;;1.76;88.10
2178;BME280;1095;50.992;6.798;2023-03-12T04:46:18;100282.25;;;1.74;88.74
2178;BME280;1095;50.992;6.798;2023-03-12T04:48:45;100288.75;;;1.66;89.89
2178;BME280;1095;50.992;6.798;2023-03-12T04:51:12;100280.94;;;1.55;90.64
2178;BME280;1095;50.992;6.798;2023-03-12T04:53:38;100275.06;;;1.53;91.46
2178;BME280;1095;50.992;6.798;2023-03-12T04:56:06;100283.84;;;1.51;92.13
2178;BME280;1095;50.992;6.798;2023-03-12T04:58:32;100287.09;;;1.42;93.08
2178;BME280;1095;50.992;6.798;2023-03-12T05:01:01;100290.91;;;1.36;94.10
2178;BME280;1095;50.992;6.798;2023-03-12T05:03:28;100280.19;;;1.29;94.97
2178;BME280;1095;50.992;6.798;2023-03-12T05:05:55;100274.31;;;1.15;95.95
2178;BME280;1095;50.992;6.798;2023-03-12T05:08:21;100282.47;;;1.09;96.77
2178;BME280;1095;50.992;6.798;2023-03-12T05:10:48;100250.31;;;1.02;97.71
2178;BME280;1095;50.992;6.798;2023-03-12T05:13:16;100259.16;;;0.97;98.30
2178;BME280;1095;50.992;6.798;2023-03-12T05:15:44;100254.84;;;0.98;98.98
2178;BME280;1095;50.992;6.798;2023-03-12T05:18:13;100248.16;;;0.95;99.57
2178;BME280;1095;50.992;6.798;2023-03-12T05:20:39;100251.34;;;0.99;100.00
2178;BME280;1095;50.992;6.798;2023-03-12T05:23:06;100241.13;;;0.97;100.00
2178;BME280;1095;50.992;6.798;2023-03-12T05:25:33;100253.19;;;0.97;100.00
2178;BME280;1095;50.992;6.798;2023-03-12T05:27:59;100246.72;;;0.91;100.00
2178;BME280;1095;50.992;6.798;2023-03-12T05:30:26;100241.25;;;0.96;100.00
2178;BME280;1095;50.992;6.798;2023-03-12T05:32:52;100247.31;;;0.95;100.00
2178;BME280;1095;50.992;6.798;2023-03-12T05:35:20;100231.75;;;0.96;100.00
2178;BME280;1095;50.992;6.798;2023-03-12T05:37:47;100220.03;;;0.92;100.00
2178;BME280;1095;50.992;6.798;2023-03-12T05:40:14;100228.25;;;0.97;100.00
2178;BME280;1095;50.992;6.798;2023-03-12T05:42:40;100231.66;;;0.98;100.00
2178;BME280;1095;50.992;6.798;2023-03-12T05:45:08;100233.41;;;0.97;100.00
2178;BME280;1095;50.992;6.798;2023-03-12T05:47:35;100229.91;;;0.98;100.00
2178;BME280;1095;50.992;6.798;2023-03-12T05:50:01;100213.72;;;0.96;100.00
2178;BME280;1095;50.992;6.798;2023-03-12T05:52:30;100207.75;;;0.96;100.00
2178;BME280;1095;50.992;6.798;2023-03-12T05:54:56;100202.50;;;0.97;100.00
2178;BME280;1095;50.992;6.798;2023-03-12T05:57:23;100207.06;;;0.94;100.00
2178;BME280;1095;50.992;6.798;2023-03-12T05:59:49;100200.94;;;0.95;100.00
2178;BME280;1095;50.992;6.798;2023-03-12T06:02:16;100209.09;;;1.02;100.00
2178;BME280;1095;50.992;6.798;2023-03-12T06:04:42;100208.38;;;0.99;100.00
2178;BME280;1095;50.992;6.798;2023-03-12T06:07:11;100207.34;;;1.02;100.00
2178;BME280;1095;50.992;6.798;2023-03-12T06:09:39;100198.56;;;1.05;100.00
2178;BME280;1095;50.992;6.798;2023-03-12T06:12:07;100195.28;;;1.03;100.00
2178;BME280;1095;50.992;6.798;2023-03-12T06:14:34;100195.88;;;1.06;100.00
2178;BME280;1095;50.992;6.798;2023-03-12T06:17:01;100202.91;;;1.04;100.00
2178;BME280;1095;50.992;6.798;2023-03-12T06:19:27;100192.38;;;1.07;100.00
2178;BME280;1095;50.992;6.798;2023-03-12T06:21:54;100193.41;;;1.05;100.00
2178;BME280;1095;50.992;6.798;2023-03-12T06:24:20;100190.31;;;1.12;100.00
2178;BME280;1095;50.992;6.798;2023-03-12T06:26:48;100195.66;;;1.22;100.00
2178;BME280;1095;50.992;6.798;2023-03-12T06:29:15;100189.78;;;1.20;100.00
2178;BME280;1095;50.992;6.798;2023-03-12T06:31:42;100201.22;;;1.28;100.00
2178;BME280;1095;50.992;6.798;2023-03-12T06:34:08;100200.00;;;1.45;100.00
2178;BME280;1095;50.992;6.798;2023-03-12T06:36:35;100198.59;;;1.41;100.00
2178;BME280;1095;50.992;6.798;2023-03-12T06:39:02;100186.34;;;1.32;100.00
2178;BME280;1095;50.992;6.798;2023-03-12T06:41:32;100179.06;;;1.26;100.00
2178;BME280;1095;50.992;6.798;2023-03-12T06:44:01;100174.81;;;1.25;100.00
2178;BME280;1095;50.992;6.798;2023-03-12T06:46:30;100179.88;;;1.26;100.00
2178;BME280;1095;50.992;6.798;2023-03-12T06:48:57;100164.84;;;1.20;100.00
2178;BME280;1095;50.992;6.798;2023-03-12T06:51:24;100184.59;;;1.32;100.00
2178;BME280;1095;50.992;6.798;2023-03-12T06:53:51;100182.63;;;1.36;100.00
2178;BME280;1095;50.992;6.798;2023-03-12T06:56:18;100190.41;;;1.47;100.00
2178;BME280;1095;50.992;6.798;2023-03-12T06:58:44;100190.31;;;1.49;100.00
2178;BME280;1095;50.992;6.798;2023-03-12T07:01:12;100195.84;;;1.55;100.00
2178;BME280;1095;50.992;6.798;2023-03-12T07:03:39;100191.78;;;1.64;100.00
2178;BME280;1095;50.992;6.798;2023-03-12T07:06:12;100188.22;;;1.78;100.00
2178;BME280;1095;50.992;6.798;2023-03-12T07:08:39;100200.47;;;1.87;100.00
2178;BME280;1095;50.992;6.798;2023-03-12T07:11:05;100194.72;;;1.83;100.00
2178;BME280;1095;50.992;6.798;2023-03-12T07:13:32;100193.09;;;1.93;100.00
2178;BME280;1095;50.992;6.798;2023-03-12T07:15:58;100181.13;;;1.92;100.00
2178;BME280;1095;50.992;6.798;2023-03-12T07:18:26;100183.13;;;1.89;100.00
2178;BME280;1095;50.992;6.798;2023-03-12T07:20:53;100162.13;;;1.93;100.00
2178;BME280;1095;50.992;6.798;2023-03-12T07:23:20;100165.19;;;1.98;100.00
2178;BME280;1095;50.992;6.798;2023-03-12T07:25:48;100167.91;;;2.08;99.64
2178;BME280;1095;50.992;6.798;2023-03-12T07:28:16;100171.22;;;2.10;99.23
2178;BME280;1095;50.992;6.798;2023-03-12T07:30:43;100171.78;;;2.03;98.77
2178;BME280;1095;50.992;6.798;2023-03-12T07:33:16;100168.84;;;2.07;98.72
2178;BME280;1095;50.992;6.798;2023-03-12T07:35:45;100164.91;;;2.14;98.16
2178;BME280;1095;50.992;6.798;2023-03-12T07:38:12;100167.97;;;2.19;98.13
2178;BME280;1095;50.992;6.798;2023-03-12T07:40:39;100171.25;;;2.21;97.84
2178;BME280;1095;50.992;6.798;2023-03-12T07:43:06;100161.88;;;2.31;97.73
2178;BME280;1095;50.992;6.798;2023-03-12T07:45:35;100159.75;;;2.25;97.33
2178;BME280;1095;50.992;6.798;2023-03-12T07:48:02;100154.13;;;2.20;97.00
2178;BME280;1095;50.992;6.798;2023-03-12T07:50:29;100154.75;;;2.35;97.30
2178;BME280;1095;50.992;6.798;2023-03-12T07:52:56;100164.81;;;2.27;96.97
2178;BME280;1095;50.992;6.798;2023-03-12T07:55:24;100158.38;;;2.32;97.13
2178;BME280;1095;50.992;6.798;2023-03-12T07:57:50;100150.25;;;2.37;97.01
2178;BME280;1095;50.992;6.798;2023-03-12T08:00:18;100160.00;;;2.45;97.23
2178;BME280;1095;50.992;6.798;2023-03-12T08:02:45;100161.06;;;2.53;97.17
2178;BME280;1095;50.992;6.798;2023-03-12T08:05:11;100154.03;;;2.55;96.97
2178;BME280;1095;50.992;6.798;2023-03-12T08:07:38;100165.31;;;2.65;97.00
2178;BME280;1095;50.992;6.798;2023-03-12T08:10:08;100160.03;;;2.67;96.81
2178;BME280;1095;50.992;6.798;2023-03-12T08:12:35;100176.97;;;2.82;96.72
2178;BME280;1095;50.992;6.798;2023-03-12T08:15:02;100171.06;;;2.69;97.75
2178;BME280;1095;50.992;6.798;2023-03-12T08:17:29;100163.56;;;2.77;97.02
2178;BME280;1095;50.992;6.798;2023-03-12T08:19:56;100176.13;;;2.82;97.36
2178;BME280;1095;50.992;6.798;2023-03-12T08:22:22;100172.25;;;2.76;98.41
2178;BME280;1095;50.992;6.798;2023-03-12T08:24:49;100173.44;;;2.83;98.35
2178;BME280;1095;50.992;6.798;2023-03-12T08:27:18;100181.88;;;2.63;99.38
2178;BME280;1095;50.992;6.798;2023-03-12T08:29:45;100195.06;;;2.82;100.00
2178;BME280;1095;50.992;6.798;2023-03-12T08:32:11;100188.78;;;2.85;100.00
2178;BME280;1095;50.992;6.798;2023-03-12T08:34:38;100194.56;;;2.88;100.00
2178;BME280;1095;50.992;6.798;2023-03-12T08:37:05;100190.31;;;2.87;100.00
2178;BME280;1095;50.992;6.798;2023-03-12T08:39:32;100189.63;;;2.96;100.00
2178;BME280;1095;50.992;6.798;2023-03-12T08:41:59;100187.28;;;2.82;100.00
2178;BME280;1095;50.992;6.798;2023-03-12T08:44:27;100188.94;;;2.83;100.00
2178;BME280;1095;50.992;6.798;2023-03-12T08:46:54;100186.22;;;2.85;100.00
2178;BME280;1095;50.992;6.798;2023-03-12T08:49:21;100184.34;;;2.76;100.00
2178;BME280;1095;50.992;6.798;2023-03-12T08:51:49;100189.84;;;2.93;100.00
2178;BME280;1095;50.992;6.798;2023-03-12T08:54:17;100174.81;;;2.87;100.00
2178;BME280;1095;50.992;6.798;2023-03-12T08:56:43;100173.19;;;2.86;100.00
2178;BME280;1095;50.992;6.798;2023-03-12T08:59:12;100182.69;;;2.97;100.00
2178;BME280;1095;50.992;6.798;2023-03-12T09:01:43;100174.13;;;2.96;100.00
2178;BME280;1095;50.992;6.798;2023-03-12T09:04:09;100184.91;;;3.02;100.00
2178;BME280;1095;50.992;6.798;2023-03-12T09:06:36;100179.41;;;3.17;100.00
2178;BME280;1095;50.992;6.798;2023-03-12T09:09:03;100205.25;;;3.28;100.00
2178;BME280;1095;50.992;6.798;2023-03-12T09:11:31;100190.28;;;3.32;100.00
2178;BME280;1095;50.992;6.798;2023-03-12T09:13:58;100188.69;;;3.20;100.00
2178;BME280;1095;50.992;6.798;2023-03-12T09:16:25;100196.28;;;3.32;100.00
2178;BME280;1095;50.992;6.798;2023-03-12T09:18:53;100199.94;;;3.30;100.00
2178;BME280;1095;50.992;6.798;2023-03-12T09:21:20;100210.84;;;3.45;100.00
2178;BME280;1095;50.992;6.798;2023-03-12T09:23:48;100200.34;;;3.57;100.00
2178;BME280;1095;50.992;6.798;2023-03-12T09:26:14;100208.13;;;3.57;100.00
2178;BME280;1095;50.992;6.798;2023-03-12T09:28:41;100202.00;;;3.58;100.00
2178;BME280;1095;50.992;6.798;2023-03-12T09:31:09;100201.50;;;3.64;100.00
2178;BME280;1095;50.992;6.798;2023-03-12T09:33:36;100216.44;;;3.61;100.00
2178;BME280;1095;50.992;6.798;2023-03-12T09:36:05;100214.91;;;3.70;100.00
2178;BME280;1095;50.992;6.798;2023-03-12T09:38:32;100214.34;;;3.55;100.00
2178;BME280;1095;50.992;6.798;2023-03-12T09:41:00;100211.94;;;3.74;100.00
2178;BME280;1095;50.992;6.798;2023-03-12T09:43:33;100224.06;;;3.74;100.00
2178;BME280;1095;50.992;6.798;2023-03-12T09:46:03;100204.31;;;3.73;100.00
2178;BME280;1095;50.992;6.798;2023-03-12T09:48:37;100215.25;;;3.76;100.00
2178;BME280;1095;50.992;6.798;2023-03-12T09:51:13;100226.56;;;3.96;100.00
2178;BME280;1095;50.992;6.798;2023-03-12T09:53:44;100217.69;;;4.10;100.00
2178;BME280;1095;50.992;6.798;2023-03-12T09:56:15;100215.16;;;3.98;100.00
2178;BME280;1095;50.992;6.798;2023-03-12T09:58:43;100216.63;;;4.12;100.00
2178;BME280;1095;50.992;6.798;2023-03-12T10:01:25;100219.41;;;4.20;100.00
2178;BME280;1095;50.992;6.798;2023-03-12T10:04:04;100220.25;;;4.21;100.00
2178;BME280;1095;50.992;6.798;2023-03-12T10:06:42;100217.53;;;4.22;100.00
2178;BME280;1095;50.992;6.798;2023-03-12T10:09:21;100208.81;;;4.23;100.00
2178;BME280;1095;50.992;6.798;2023-03-12T10:11:56;100219.53;;;4.40;100.00
2178;BME280;1095;50.992;6.798;2023-03-12T10:14:31;100209.09;;;4.51;100.00
2178;BME280;1095;50.992;6.798;2023-03-12T10:17:14;100214.72;;;4.56;100.00
2178;BME280;1095;50.992;6.798;2023-03-12T10:19:57;100228.19;;;4.50;100.00
2178;BME280;1095;50.992;6.798;2023-03-12T10:22:45;100222.22;;;4.80;100.00
2178;BME280;1095;50.992;6.798;2023-03-12T10:25:21;100230.25;;;4.77;100.00
2178;BME280;1095;50.992;6.798;2023-03-12T10:27:51;100227.97;;;4.83;100.00
2178;BME280;1095;50.992;6.798;2023-03-12T10:30:21;100218.78;;;4.79;100.00
2178;BME280;1095;50.992;6.798;2023-03-12T10:32:51;100228.66;;;4.85;100.00
2178;BME280;1095;50.992;6.798;2023-03-12T10:35:20;100214.16;;;5.04;100.00
2178;BME280;1095;50.992;6.798;2023-03-12T10:37:50;100218.91;;;4.98;100.00
2178;BME280;1095;50.992;6.798;2023-03-12T10:40:21;100227.16;;;5.13;100.00
2178;BME280;1095;50.992;6.798;2023-03-12T10:42:48;100223.81;;;5.42;100.00
2178;BME280;1095;50.992;6.798;2023-03-12T10:45:23;100226.56;;;5.50;100.00
2178;BME280;1095;50.992;6.798;2023-03-12T10:47:54;100240.00;;;5.64;100.00
2178;BME280;1095;50.992;6.798;2023-03-12T10:50:23;100237.38;;;5.74;100.00
2178;BME280;1095;50.992;6.798;2023-03-12T10:53:11;100236.31;;;5.86;100.00
2178;BME280;1095;50.992;6.798;2023-03-12T10:55:38;100233.84;;;5.85;100.00
2178;BME280;1095;50.992;6.798;2023-03-12T10:58:05;100246.84;;;5.85;100.00
2178;BME280;1095;50.992;6.798;2023-03-12T11:00:32;100244.84;;;5.98;100.00
2178;BME280;1095;50.992;6.798;2023-03-12T11:03:00;100233.88;;;6.23;100.00
2178;BME280;1095;50.992;6.798;2023-03-12T11:05:30;100229.25;;;6.93;100.00
2178;BME280;1095;50.992;6.798;2023-03-12T11:07:59;100235.53;;;7.27;100.00
2178;BME280;1095;50.992;6.798;2023-03-12T11:10:40;100242.06;;;7.59;100.00
2178;BME280;1095;50.992;6.798;2023-03-12T11:13:23;100235.56;;;7.90;100.00
2178;BME280;1095;50.992;6.798;2023-03-12T11:15:51;100233.72;;;8.01;100.00
2178;BME280;1095;50.992;6.798;2023-03-12T11:18:31;100216.19;;;8.11;100.00
2178;BME280;1095;50.992;6.798;2023-03-12T11:21:12;100227.34;;;8.21;100.00
2178;BME280;1095;50.992;6.798;2023-03-12T11:23:42;100226.31;;;8.31;100.00
2178;BME280;1095;50.992;6.798;2023-03-12T11:26:20;100218.44;;;8.41;100.00
2178;BME280;1095;50.992;6.798;2023-03-12T11:32:52;100207.78;;;8.86;100.00
2178;BME280;1095;50.992;6.798;2023-03-12T12:33:43;100176.38;;;11.07;100.00
2178;BME280;1095;50.992;6.798;2023-03-12T12:37:02;100163.88;;;11.25;100.00
2178;BME280;1095;50.992;6.798;2023-03-12T13:28:54;100123.78;;;11.71;91.58
2178;BME280;1095;50.992;6.798;2023-03-12T14:34:07;100075.44;;;11.73;84.97
2178;BME280;1095;50.992;6.798;2023-03-12T14:37:06;100089.13;;;11.83;84.80
2178;BME280;1095;50.992;6.798;2023-03-12T14:40:16;100089.59;;;11.87;84.08
2178;BME280;1095;50.992;6.798;2023-03-12T14:43:27;100108.50;;;11.97;83.84
2178;BME280;1095;50.992;6.798;2023-03-12T14:46:24;100100.00;;;11.95;83.46
2178;BME280;1095;50.992;6.798;2023-03-12T14:52:50;100115.66;;;12.03;82.39
2178;BME280;1095;50.992;6.798;2023-03-12T14:56:11;100105.00;;;12.05;82.08
2178;BME280;1095;50.992;6.798;2023-03-12T14:59:33;100110.59;;;12.02;81.85
2178;BME280;1095;50.992;6.798;2023-03-12T15:02:18;100120.50;;;12.14;80.91
2178;BME280;1095;50.992;6.798;2023-03-12T15:12:07;100111.50;;;11.71;82.23
2178;BME280;1095;50.992;6.798;2023-03-12T15:16:02;100119.66;;;11.53;83.35
2178;BME280;1095;50.992;6.798;2023-03-12T15:22:31;100136.91;;;11.71;84.08
2178;BME280;1095;50.992;6.798;2023-03-12T15:42:41;100106.59;;;11.91;77.04
2178;BME280;1095;50.992;6.798;2023-03-12T15:48:55;100128.00;;;11.80;77.44
2178;BME280;1095;50.992;6.798;2023-03-12T16:05:55;100134.78;;;11.66;77.48
2178;BME280;1095;50.992;6.798;2023-03-12T16:09:04;100138.41;;;11.65;76.94
2178;BME280;1095;50.992;6.798;2023-03-12T16:16:07;100145.84;;;11.53;76.53
2178;BME280;1095;50.992;6.798;2023-03-12T16:22:42;100146.47;;;11.33;78.04
2178;BME280;1095;50.992;6.798;2023-03-12T16:29:35;100160.75;;;11.30;78.14
2178;BME280;1095;50.992;6.798;2023-03-12T16:53:38;100133.38;;;11.02;79.46
2178;BME280;1095;50.992;6.798;2023-03-12T16:56:26;100120.00;;;10.88;79.79
2178;BME280;1095;50.992;6.798;2023-03-12T16:59:32;100146.00;;;10.90;80.61
2178;BME280;1095;50.992;6.798;2023-03-12T17:05:55;100134.72;;;10.89;80.73
2178;BME280;1095;50.992;6.798;2023-03-12T17:18:12;100170.16;;;10.61;82.58
2178;BME280;1095;50.992;6.798;2023-03-12T17:21:17;100161.84;;;10.49;82.86
2178;BME280;1095;50.992;6.798;2023-03-12T17:29:07;100155.47;;;10.44;83.35
2178;BME280;1095;50.992;6.798;2023-03-12T17:31:34;100147.13;;;10.40;83.29
2178;BME280;1095;50.992;6.798;2023-03-12T17:34:03;100154.00;;;10.41;83.35
2178;BME280;1095;50.992;6.798;2023-03-12T17:36:29;100139.81;;;10.36;83.38
2178;BME280;1095;50.992;6.798;2023-03-12T17:38:58;100143.91;;;10.38;83.49
2178;BME280;1095;50.992;6.798;2023-03-12T17:41:24;100147.50;;;10.29;83.74
2178;BME280;1095;50.992;6.798;2023-03-12T17:43:51;100162.06;;;10.23;83.93
2178;BME280;1095;50.992;6.798;2023-03-12T17:46:19;100173.34;;;10.24;84.06
2178;BME280;1095;50.992;6.798;2023-03-12T17:48:45;100178.38;;;10.17;84.69
2178;BME280;1095;50.992;6.798;2023-03-12T17:51:13;100169.53;;;10.18;84.36
2178;BME280;1095;50.992;6.798;2023-03-12T17:53:40;100182.50;;;10.28;84.02
2178;BME280;1095;50.992;6.798;2023-03-12T17:56:07;100194.25;;;10.24;84.23
2178;BME280;1095;50.992;6.798;2023-03-12T17:58:36;100191.81;;;10.22;84.13
2178;BME280;1095;50.992;6.798;2023-03-12T18:01:03;100193.59;;;10.22;84.33
2178;BME280;1095;50.992;6.798;2023-03-12T18:03:30;100203.91;;;10.23;84.31
2178;BME280;1095;50.992;6.798;2023-03-12T18:05:57;100203.25;;;10.29;84.76
2178;BME280;1095;50.992;6.798;2023-03-12T18:08:26;100197.34;;;10.19;85.01